Time;durP1;ratioP1;P1;durP2;ratioP2;P2;SDS_P1;SDS_P2;PMS_P1;PMS_P2;Temp;Humidity;BMP_temperature;BMP_pressure;BME280_temperature;BME280_humidity;BME280_pressure;Samples;Min_cycle;Max_cycle;Signal;HPM_P1;HPM_P2
2021/06/09 00:00:15;;;;;;;2.00;1.80;;;21.70;68.80;;;;;;5116827;28;20044;-57
2021/06/09 00:02:40;;;;;;;2.42;1.98;;;21.70;68.80;;;;;;5116378;28;20052;-55
2021/06/09 00:05:07;;;;;;;2.40;2.20;;;21.70;68.80;;;;;;5115814;28;20063;-57
2021/06/09 00:07:32;;;;;;;2.42;2.17;;;21.70;68.80;;;;;;5116436;28;20052;-57
2021/06/09 00:09:58;;;;;;;2.97;2.00;;;21.70;68.80;;;;;;5117006;28;20043;-57
2021/06/09 00:12:24;;;;;;;3.22;2.28;;;21.70;68.80;;;;;;5116442;28;20044;-57
2021/06/09 00:14:50;;;;;;;2.35;1.88;;;21.70;68.80;;;;;;5115670;28;20078;-56
2021/06/09 00:17:15;;;;;;;2.28;2.08;;;21.60;68.80;;;;;;5116210;28;20055;-57
2021/06/09 00:19:41;;;;;;;2.22;2.03;;;21.60;68.80;;;;;;5116211;28;20470;-57
2021/06/09 00:22:07;;;;;;;2.50;2.30;;;21.60;68.80;;;;;;5134221;27;20062;-56
2021/06/09 00:24:34;;;;;;;2.13;1.90;;;21.60;68.80;;;;;;5134688;27;20141;-55
2021/06/09 00:27:00;;;;;;;2.05;1.85;;;21.60;68.80;;;;;;5136604;27;20071;-57
2021/06/09 00:29:26;;;;;;;2.80;1.90;;;21.60;68.90;;;;;;5136794;27;20047;-56
2021/06/09 00:31:52;;;;;;;2.90;2.00;;;21.60;68.90;;;;;;5136558;27;20058;-56
2021/06/09 00:34:18;;;;;;;2.40;2.13;;;21.60;68.90;;;;;;5136464;27;20039;-56
2021/06/09 00:36:44;;;;;;;2.28;2.08;;;21.60;68.90;;;;;;5134494;27;20493;-56
2021/06/09 00:39:10;;;;;;;2.25;1.92;;;21.60;68.90;;;;;;5135967;27;20113;-56
2021/06/09 00:41:37;;;;;;;2.20;2.00;;;21.60;69.00;;;;;;5136233;27;20047;-56
2021/06/09 00:44:06;;;;;;;2.17;1.73;;;21.60;69.00;;;;;;5136111;27;20047;-56
2021/06/09 00:46:36;;;;;;;2.30;1.95;;;21.60;69.00;;;;;;5134499;27;20039;-56
2021/06/09 00:49:03;;;;;;;2.22;2.00;;;21.60;69.00;;;;;;5136247;27;20055;-56
2021/06/09 00:51:32;;;;;;;2.40;2.20;;;21.60;69.00;;;;;;5136117;27;20523;-55
2021/06/09 00:54:03;;;;;;;2.97;1.92;;;21.60;69.00;;;;;;5135299;27;20092;-57
2021/06/09 00:56:31;;;;;;;2.42;1.95;;;21.60;69.00;;;;;;5134191;27;20112;-54
2021/06/09 00:58:57;;;;;;;2.00;1.77;;;21.60;69.10;;;;;;5125549;27;20463;-57
2021/06/09 01:01:25;;;;;;;2.67;2.17;;;21.60;69.10;;;;;;5115334;28;20067;-57
2021/06/09 01:03:51;;;;;;;2.17;1.98;;;21.60;69.80;;;;;;5115341;28;20434;-57
2021/06/09 01:06:17;;;;;;;2.03;1.88;;;21.60;69.10;;;;;;5115083;28;20510;-57
2021/06/09 01:09:07;;;;;;;2.90;2.28;;;21.60;69.10;;;;;;5099179;28;20051;-57
2021/06/09 01:11:33;;;;;;;2.10;1.90;;;21.60;69.10;;;;;;5115179;27;20051;-57
2021/06/09 01:14:18;;;;;;;1.92;1.73;;;21.60;69.20;;;;;;5099920;28;20093;-57
2021/06/09 01:16:44;;;;;;;3.05;2.03;;;21.60;69.20;;;;;;5115087;28;20051;-57
2021/06/09 01:19:11;;;;;;;2.20;2.00;;;21.50;69.10;;;;;;5116022;27;20067;-58
2021/06/09 01:21:37;;;;;;;2.40;1.95;;;21.60;69.20;;;;;;5114531;28;20496;-57
2021/06/09 01:24:03;;;;;;;2.20;1.60;;;21.50;69.20;;;;;;5114610;28;20075;-57
2021/06/09 01:26:31;;;;;;;2.17;1.98;;;21.60;69.20;;;;;;5115065;28;20039;-55
2021/06/09 01:28:59;;;;;;;3.05;2.08;;;21.50;69.20;;;;;;5114469;28;20044;-57
2021/06/09 01:31:26;;;;;;;3.05;1.92;;;21.50;69.20;;;;;;5114811;28;20062;-58
2021/06/09 01:34:04;;;;;;;2.95;2.50;;;21.60;69.30;;;;;;5114509;28;20177;-57
2021/06/09 01:36:31;;;;;;;2.75;2.22;;;21.40;69.20;;;;;;5114721;28;20040;-56
2021/06/09 01:38:56;;;;;;;2.33;1.80;;;21.50;69.30;;;;;;5114101;28;20039;-57
2021/06/09 01:41:23;;;;;;;2.45;2.22;;;21.50;69.30;;;;;;5114357;28;20043;-57
2021/06/09 01:44:00;;;;;;;1.90;1.77;;;21.50;69.30;;;;;;5114491;28;20044;-57
2021/06/09 01:46:26;;;;;;;2.63;1.95;;;21.50;69.30;;;;;;5114335;28;20108;-56
2021/06/09 01:48:52;;;;;;;2.95;2.22;;;21.50;69.30;;;;;;5114248;28;20043;-57
2021/06/09 01:51:18;;;;;;;2.72;2.10;;;21.50;69.30;;;;;;5114082;28;20503;-57
2021/06/09 01:53:45;;;;;;;2.30;2.10;;;21.50;69.30;;;;;;5114340;28;20075;-57
2021/06/09 01:56:11;;;;;;;2.50;2.10;;;21.50;69.30;;;;;;5095600;28;20134;-57
2021/06/09 01:58:37;;;;;;;2.67;2.13;;;21.50;69.40;;;;;;5114289;28;20453;-57
2021/06/09 02:01:04;;;;;;;2.47;2.17;;;21.50;69.40;;;;;;5113786;28;20039;-57
2021/06/09 02:03:30;;;;;;;2.42;2.20;;;21.50;69.40;;;;;;5114333;28;20052;-57
2021/06/09 02:05:55;;;;;;;2.10;1.90;;;21.50;69.40;;;;;;5095990;28;20040;-57
2021/06/09 02:08:21;;;;;;;2.10;1.80;;;21.50;69.40;;;;;;5114220;28;20079;-57
2021/06/09 02:10:47;;;;;;;2.17;1.95;;;21.50;69.40;;;;;;5113497;28;20047;-56
2021/06/09 02:13:15;;;;;;;2.10;1.80;;;21.50;69.40;;;;;;5113609;28;20048;-57
2021/06/09 02:15:44;;;;;;;3.03;1.88;;;21.50;69.50;;;;;;5113834;28;20574;-58
2021/06/09 02:20:39;;;;;;;2.65;2.10;;;21.40;69.50;;;;;;5113087;28;20483;-57
2021/06/09 02:23:20;;;;;;;2.08;1.88;;;21.50;69.50;;;;;;5132391;27;20047;-57
2021/06/09 02:25:48;;;;;;;2.67;2.25;;;21.50;69.50;;;;;;5134683;27;20050;-57
2021/06/09 02:28:14;;;;;;;1.77;1.67;;;21.50;69.60;;;;;;5134390;27;20497;-58
2021/06/09 02:30:44;;;;;;;2.20;1.98;;;21.50;69.50;;;;;;5134300;27;20050;-57
2021/06/09 02:33:30;;;;;;;1.80;1.65;;;21.40;69.50;;;;;;5117076;27;20043;-58
2021/06/09 02:35:58;;;;;;;1.85;1.55;;;21.50;69.50;;;;;;5124193;27;20040;-57
2021/06/09 02:38:24;;;;;;;2.00;1.80;;;21.50;69.50;;;;;;5113602;28;20506;-56
2021/06/09 02:40:53;;;;;;;2.05;1.85;;;21.50;69.50;;;;;;5113545;28;20044;-57
2021/06/09 02:43:20;;;;;;;2.60;2.17;;;21.50;69.60;;;;;;5114282;27;20460;-57
2021/06/09 02:45:49;;;;;;;2.05;1.85;;;21.40;69.60;;;;;;5113695;28;20052;-58
2021/06/09 02:48:17;;;;;;;2.58;2.25;;;21.40;69.60;;;;;;5113232;28;20070;-57
2021/06/09 02:50:46;;;;;;;2.40;2.10;;;21.40;69.60;;;;;;5113275;28;20047;-58
2021/06/09 02:53:22;;;;;;;2.25;1.95;;;21.40;69.60;;;;;;5114162;27;20046;-57
2021/06/09 02:55:52;;;;;;;2.08;1.88;;;21.40;69.60;;;;;;5112596;28;20055;-57
2021/06/09 02:58:40;;;;;;;2.45;2.13;;;21.40;69.60;;;;;;5093648;28;20051;-57
2021/06/09 03:01:25;;;;;;;2.72;2.20;;;21.40;69.50;;;;;;5112243;28;20104;-56
2021/06/09 03:04:21;;;;;;;2.50;1.88;;;21.40;69.60;;;;;;5112449;28;20036;-56
2021/06/09 03:06:55;;;;;;;2.53;2.15;;;21.40;69.60;;;;;;5101663;28;20047;-57
2021/06/09 03:09:50;;;;;;;2.47;2.22;;;21.40;69.60;;;;;;5113026;28;20108;-58
2021/06/09 03:12:36;;;;;;;2.28;1.95;;;21.40;69.70;;;;;;5030096;28;20501;-57
2021/06/09 03:15:13;;;;;;;2.20;2.00;;;21.40;69.60;;;;;;5030817;28;20218;-57
2021/06/09 03:17:49;;;;;;;2.08;1.88;;;21.40;69.60;;;;;;5029972;28;20041;-57
2021/06/09 03:20:46;;;;;;;2.30;2.08;;;21.40;69.60;;;;;;5030207;28;20053;-56
2021/06/09 03:23:15;;;;;;;2.45;2.20;;;21.40;69.60;;;;;;5046213;28;20053;-57
2021/06/09 03:26:09;;;;;;;2.58;2.33;;;21.40;69.70;;;;;;5049801;28;20136;-58
2021/06/09 03:29:12;;;;;;;2.92;2.20;;;21.40;69.70;;;;;;5049545;28;20575;-57
2021/06/09 03:31:45;;;;;;;2.25;2.00;;;21.40;69.60;;;;;;5049694;28;20053;-57
2021/06/09 03:34:17;;;;;;;2.33;1.77;;;21.40;69.70;;;;;;5049816;28;20497;-57
2021/06/09 03:36:43;;;;;;;2.22;2.00;;;21.30;69.70;;;;;;5049548;28;20473;-58
2021/06/09 03:39:12;;;;;;;2.55;2.03;;;21.40;69.70;;;;;;5049862;28;20387;-57
2021/06/09 03:41:40;;;;;;;2.45;2.03;;;21.40;69.80;;;;;;5049825;28;20516;-56
2021/06/09 03:44:09;;;;;;;2.05;1.80;;;21.40;69.80;;;;;;5049185;28;20045;-57
2021/06/09 03:46:38;;;;;;;2.08;1.85;;;21.30;69.80;;;;;;5049447;28;20123;-57
2021/06/09 03:49:10;;;;;;;2.17;1.98;;;21.30;69.80;;;;;;5081684;28;20071;-55
2021/06/09 03:51:51;;;;;;;2.55;2.10;;;21.30;69.80;;;;;;5133069;28;20053;-57
2021/06/09 03:54:39;;;;;;;;;;;21.30;69.80;;;;;;5133280;28;20429;-57
2021/06/09 03:57:25;;;;;;;1.90;1.80;;;21.30;69.70;;;;;;5117429;28;19919;-56
2021/06/09 03:59:54;;;;;;;2.35;2.15;;;21.30;69.80;;;;;;5132607;28;20515;-57
2021/06/09 04:02:22;;;;;;;2.05;1.85;;;21.30;69.80;;;;;;5132867;28;20039;-57
2021/06/09 04:04:52;;;;;;;2.35;2.15;;;21.30;69.80;;;;;;5132974;28;20040;-56
2021/06/09 04:07:21;;;;;;;2.60;2.17;;;21.30;69.80;;;;;;5133037;28;20078;-56
2021/06/09 04:09:50;;;;;;;2.33;2.00;;;21.30;69.80;;;;;;5132134;28;20047;-57
2021/06/09 04:12:17;;;;;;;1.77;1.67;;;21.30;69.90;;;;;;5132987;28;20448;-56
2021/06/09 04:14:46;;;;;;;2.13;1.80;;;21.30;70.60;;;;;;5132856;28;20047;-57
2021/06/09 04:17:17;;;;;;;2.13;1.90;;;21.30;69.90;;;;;;5132498;28;20051;-57
2021/06/09 04:19:45;;;;;;;1.77;1.67;;;21.30;69.90;;;;;;5132128;28;20483;-57
2021/06/09 04:22:12;;;;;;;2.67;2.05;;;21.30;69.90;;;;;;5123910;27;20048;-57
2021/06/09 04:24:39;;;;;;;2.28;1.75;;;21.30;69.90;;;;;;5112297;28;20403;-56
2021/06/09 04:27:09;;;;;;;2.45;1.98;;;21.30;69.90;;;;;;5112311;28;20571;-57
2021/06/09 04:29:36;;;;;;;2.10;1.80;;;21.30;69.90;;;;;;5111988;28;20105;-57
2021/06/09 04:32:07;;;;;;;2.00;1.80;;;21.30;69.90;;;;;;5111923;28;20075;-57
2021/06/09 04:34:44;;;;;;;2.70;1.90;;;21.30;70.00;;;;;;5112209;28;20066;-57
2021/06/09 04:37:10;;;;;;;2.80;2.00;;;21.40;70.00;;;;;;5112851;28;20056;-58
2021/06/09 04:39:37;;;;;;;2.20;2.00;;;21.30;69.90;;;;;;5112460;28;20039;-56
2021/06/09 04:42:05;;;;;;;2.50;2.30;;;21.30;69.90;;;;;;5111637;28;20050;-57
2021/06/09 04:44:32;;;;;;;1.90;1.63;;;21.30;70.00;;;;;;5114918;28;20526;-54
2021/06/09 04:46:58;;;;;;;2.70;2.00;;;21.30;70.00;;;;;;5115272;28;20046;-58
2021/06/09 04:49:33;;;;;;;3.13;2.28;;;21.30;70.00;;;;;;5096924;28;20047;-57
2021/06/09 04:52:01;;;;;;;1.63;1.50;;;21.30;70.00;;;;;;5115296;28;20074;-58
2021/06/09 04:54:27;;;;;;;2.35;1.98;;;21.30;70.00;;;;;;5115542;28;20048;-57
2021/06/09 04:56:53;;;;;;;2.05;1.85;;;21.30;70.00;;;;;;5115563;28;20384;-58
2021/06/09 04:59:19;;;;;;;1.83;1.63;;;21.30;70.00;;;;;;5115496;28;20040;-58
2021/06/09 05:01:45;;;;;;;2.40;1.80;;;21.30;70.00;;;;;;5114827;28;20051;-58
2021/06/09 05:04:12;;;;;;;2.03;1.83;;;21.30;70.00;;;;;;5115162;28;20073;-56
2021/06/09 05:06:38;;;;;;;1.90;1.80;;;21.30;70.00;;;;;;5096928;28;20165;-57
2021/06/09 05:09:06;;;;;;;2.17;1.98;;;21.30;70.40;;;;;;5115233;28;20055;-56
2021/06/09 05:11:52;;;;;;;1.80;1.67;;;21.30;70.00;;;;;;5096612;28;20059;-56
2021/06/09 05:14:42;;;;;;;2.47;2.20;;;21.30;70.00;;;;;;5101402;28;20036;-57
2021/06/09 05:17:08;;;;;;;1.88;1.70;;;21.30;70.00;;;;;;5115017;28;20455;-57
2021/06/09 05:19:36;;;;;;;2.33;2.05;;;21.30;70.00;;;;;;5114488;28;20120;-57
2021/06/09 05:22:08;;;;;;;1.95;1.55;;;21.30;70.00;;;;;;5121824;27;20055;-56
2021/06/09 05:24:36;;;;;;;2.40;1.80;;;21.20;70.00;;;;;;5129892;27;20048;-57
2021/06/09 05:27:04;;;;;;;1.80;1.70;;;21.20;70.00;;;;;;5130821;27;20043;-57
2021/06/09 05:29:34;;;;;;;2.08;1.85;;;21.20;70.00;;;;;;5135350;27;20572;-57
2021/06/09 05:32:03;;;;;;;2.10;1.90;;;21.30;70.10;;;;;;5135276;27;20676;-57
2021/06/09 05:34:32;;;;;;;1.85;1.60;;;21.30;70.10;;;;;;5133180;27;20054;-57
2021/06/09 05:36:58;;;;;;;1.88;1.70;;;21.20;70.00;;;;;;5135317;27;20134;-57
2021/06/09 05:39:25;;;;;;;1.58;1.42;;;21.30;70.10;;;;;;5135167;27;20130;-58
2021/06/09 05:41:51;;;;;;;1.98;1.63;;;21.30;70.10;;;;;;5135105;27;20394;-56
2021/06/09 05:44:17;;;;;;;1.75;1.65;;;21.20;70.00;;;;;;5133662;27;20142;-57
2021/06/09 05:46:44;;;;;;;2.00;1.58;;;21.20;70.00;;;;;;5132828;27;20100;-58
2021/06/09 05:49:39;;;;;;;1.55;1.45;;;21.20;70.10;;;;;;5113882;28;20039;-56
2021/06/09 05:52:05;;;;;;;3.22;1.83;;;21.30;70.10;;;;;;5031129;28;20104;-57
2021/06/09 05:54:41;;;;;;;1.75;1.55;;;21.20;70.10;;;;;;5032336;28;20144;-57
2021/06/09 05:57:10;;;;;;;1.70;1.60;;;21.30;70.80;;;;;;5031575;28;20053;-57
2021/06/09 05:59:38;;;;;;;2.05;1.73;;;21.20;70.10;;;;;;5031576;28;20092;-57
2021/06/09 06:02:04;;;;;;;1.58;1.48;;;21.30;70.10;;;;;;5031329;28;20132;-57
2021/06/09 06:04:35;;;;;;;2.00;1.80;;;21.20;70.10;;;;;;5030995;28;20123;-57
2021/06/09 06:07:03;;;;;;;1.40;1.30;;;21.30;70.80;;;;;;5032332;28;20092;-57
2021/06/09 06:09:29;;;;;;;1.60;1.50;;;21.30;70.20;;;;;;5031131;28;20061;-57
2021/06/09 06:11:56;;;;;;;1.50;1.40;;;21.30;70.10;;;;;;5031163;28;20567;-58
2021/06/09 06:14:25;;;;;;;1.63;1.52;;;21.20;70.10;;;;;;5030953;28;20057;-57
2021/06/09 06:16:53;;;;;;;1.85;1.63;;;21.30;70.20;;;;;;5031806;28;20049;-57
2021/06/09 06:19:19;;;;;;;1.98;1.58;;;21.30;70.20;;;;;;5031019;28;20060;-58
2021/06/09 06:21:46;;;;;;;1.35;1.25;;;21.30;70.20;;;;;;5032940;28;20060;-58
2021/06/09 06:24:16;;;;;;;1.85;1.60;;;21.20;70.10;;;;;;5051020;28;20091;-57
2021/06/09 06:26:49;;;;;;;1.30;1.15;;;21.20;70.10;;;;;;5050498;28;20052;-57
2021/06/09 06:29:15;;;;;;;1.30;1.20;;;21.30;70.20;;;;;;5102424;28;20055;-57
2021/06/09 06:31:41;;;;;;;1.45;1.30;;;21.20;70.10;;;;;;5113332;28;20059;-54
2021/06/09 06:34:08;;;;;;;1.30;1.20;;;21.30;70.20;;;;;;5113517;28;20126;-58
2021/06/09 06:36:36;;;;;;;1.85;1.42;;;21.30;70.20;;;;;;5113308;28;20047;-57
2021/06/09 06:39:05;;;;;;;1.10;1.05;;;21.30;70.20;;;;;;5113107;28;20071;-56
2021/06/09 06:41:31;;;;;;;1.30;1.20;;;21.30;70.10;;;;;;5113751;28;20134;-56
2021/06/09 06:43:57;;;;;;;1.38;1.27;;;21.30;70.20;;;;;;5113473;28;20051;-57
2021/06/09 06:46:24;;;;;;;1.45;1.25;;;21.30;70.20;;;;;;5113556;28;20043;-58
2021/06/09 06:48:53;;;;;;;1.50;1.30;;;21.30;70.10;;;;;;5113265;28;20111;-57
2021/06/09 06:51:20;;;;;;;1.55;1.40;;;21.30;70.10;;;;;;5113695;28;20448;-57
2021/06/09 06:53:48;;;;;;;1.40;1.30;;;21.30;70.10;;;;;;5113423;28;20043;-58
2021/06/09 06:56:17;;;;;;;1.20;1.10;;;21.30;70.10;;;;;;5113276;28;20051;-56
2021/06/09 06:58:50;;;;;;;1.35;1.25;;;21.30;70.10;;;;;;5112673;28;20395;-57
2021/06/09 07:01:37;;;;;;;1.77;1.45;;;21.20;70.00;;;;;;5113251;28;20054;-56
2021/06/09 07:04:07;;;;;;;1.83;1.55;;;21.30;70.00;;;;;;5112687;28;20044;-57
2021/06/09 07:06:35;;;;;;;1.77;1.33;;;21.30;70.10;;;;;;5112423;28;20052;-57
2021/06/09 07:09:03;;;;;;;1.10;1.00;;;21.30;70.10;;;;;;5112695;28;20044;-56
2021/06/09 07:11:31;;;;;;;2.25;1.55;;;21.30;70.10;;;;;;5112941;28;20059;-57
2021/06/09 07:13:59;;;;;;;4.90;1.70;;;21.40;70.30;;;;;;5112779;28;20083;-53
2021/06/09 07:16:30;;;;;;;3.58;1.50;;;21.50;69.20;;;;;;5112690;28;20499;-52
2021/06/09 07:18:57;;;;;;;3.88;1.58;;;21.60;69.10;;;;;;5112825;28;20054;-50
2021/06/09 07:21:23;;;;;;;1.65;1.55;;;21.50;69.00;;;;;;5112346;28;20039;-48
2021/06/09 07:23:50;;;;;;;1.60;1.50;;;21.60;69.10;;;;;;5132351;27;20051;-50
2021/06/09 07:26:18;;;;;;;1.40;1.30;;;21.60;69.10;;;;;;5133273;27;20047;-49
2021/06/09 07:28:50;;;;;;;1.70;1.40;;;21.60;69.20;;;;;;5133168;27;20091;-50
2021/06/09 07:31:27;;;;;;;2.92;1.85;;;21.60;69.20;;;;;;5131702;27;20051;-47
2021/06/09 07:33:54;;;;;;;1.60;1.40;;;21.60;69.20;;;;;;5115038;27;20191;-49
2021/06/09 07:36:25;;;;;;;3.92;1.60;;;21.60;69.30;;;;;;5112668;28;20040;-46
2021/06/09 07:38:56;;;;;;;1.85;1.50;;;21.60;69.40;;;;;;5112083;28;20058;-49
2021/06/09 07:41:27;;;;;;;2.72;1.58;;;21.60;69.40;;;;;;5113411;28;20074;-51
2021/06/09 07:43:55;;;;;;;1.67;1.38;;;21.60;69.40;;;;;;5112560;28;20047;-50
2021/06/09 07:46:27;;;;;;;2.10;1.23;;;21.50;69.40;;;;;;5112395;28;20119;-48
2021/06/09 07:48:55;;;;;;;1.60;1.40;;;21.60;69.50;;;;;;5112402;28;20085;-54
2021/06/09 07:51:24;;;;;;;2.65;1.52;;;21.50;69.50;;;;;;5113606;28;20092;-45
2021/06/09 07:53:57;;;;;;;1.85;1.60;;;21.60;69.60;;;;;;5111965;28;20055;-50
2021/06/09 07:56:32;;;;;;;2.15;1.55;;;21.60;69.60;;;;;;5112673;28;20144;-46
2021/06/09 07:59:03;;;;;;;1.70;1.50;;;21.50;69.50;;;;;;5112353;28;20456;-46
2021/06/09 08:01:30;;;;;;;1.70;1.40;;;21.60;69.60;;;;;;5112502;28;20046;-49
2021/06/09 08:03:57;;;;;;;1.38;1.27;;;21.60;69.60;;;;;;5113636;28;20105;-50
2021/06/09 08:06:24;;;;;;;1.90;1.60;;;21.60;69.60;;;;;;5104897;28;20066;-51
2021/06/09 08:08:51;;;;;;;1.40;1.30;;;21.60;69.60;;;;;;5099623;28;20055;-51
2021/06/09 08:11:17;;;;;;;1.60;1.40;;;21.60;69.60;;;;;;5091658;28;20122;-51
2021/06/09 08:13:43;;;;;;;1.90;1.55;;;21.60;69.60;;;;;;5112666;28;20176;-51
2021/06/09 08:16:16;;;;;;;2.03;1.55;;;21.60;69.60;;;;;;5132161;28;20544;-51
2021/06/09 08:18:43;;;;;;;1.50;1.30;;;21.60;69.60;;;;;;5134059;27;20047;-50
2021/06/09 08:21:15;;;;;;;1.83;1.70;;;21.60;69.60;;;;;;5135978;27;20051;-52
2021/06/09 08:23:45;;;;;;;1.75;1.40;;;21.60;69.60;;;;;;5134513;27;20141;-51
2021/06/09 08:26:14;;;;;;;1.67;1.42;;;21.60;69.60;;;;;;5127093;27;20471;-52
2021/06/09 08:28:43;;;;;;;1.73;1.50;;;21.60;69.60;;;;;;5117138;27;20039;-47
2021/06/09 08:31:14;;;;;;;1.48;1.38;;;21.70;69.60;;;;;;5123898;27;20054;-51
2021/06/09 08:33:41;;;;;;;2.55;1.50;;;21.70;69.60;;;;;;5115977;27;20050;-46
2021/06/09 08:36:11;;;;;;;1.73;1.20;;;21.70;69.60;;;;;;5133811;27;20097;-46
2021/06/09 08:38:55;;;;;;;1.13;1.08;;;21.70;69.60;;;;;;5136036;27;20050;-52
2021/06/09 08:41:27;;;;;;;2.05;1.67;;;21.70;69.60;;;;;;5135731;27;20443;-47
2021/06/09 08:43:57;;;;;;;16.08;5.50;;;21.70;69.60;;;;;;5136384;27;20043;-57
2021/06/09 08:46:23;;;;;;;23.48;11.27;;;21.80;69.70;;;;;;5134708;27;20047;-57
2021/06/09 08:48:49;;;;;;;11.05;9.82;;;23.20;70.40;;;;;;5136244;27;20456;-52
2021/06/09 08:51:18;;;;;;;14.32;9.52;;;25.50;67.30;;;;;;5136081;27;20063;-50
2021/06/09 08:53:47;;;;;;;13.43;9.63;;;27.20;62.60;;;;;;5136235;27;20515;-51
2021/06/09 08:56:14;;;;;;;10.88;8.98;;;27.50;59.70;;;;;;5134045;27;20051;-51
2021/06/09 08:58:41;;;;;;;11.95;8.77;;;27.30;58.40;;;;;;5135886;27;20380;-52
2021/06/09 09:01:10;;;;;;;11.38;8.65;;;27.00;57.90;;;;;;5136003;27;20054;-53
2021/06/09 09:03:37;;;;;;;11.48;8.50;;;26.60;57.70;;;;;;5136290;27;20060;-51
2021/06/09 09:06:03;;;;;;;11.85;8.15;;;26.20;57.90;;;;;;5134323;27;20157;-50
2021/06/09 09:08:29;;;;;;;9.63;7.38;;;25.90;58.30;;;;;;5136477;27;20514;-52
2021/06/09 09:10:56;;;;;;;11.73;8.30;;;25.60;58.70;;;;;;5136472;27;20043;-49
2021/06/09 09:13:22;;;;;;;11.15;7.50;;;25.30;59.10;;;;;;5135421;27;20047;-51
2021/06/09 09:15:48;;;;;;;9.52;6.97;;;25.00;59.50;;;;;;5135692;27;20047;-49
2021/06/09 09:18:14;;;;;;;8.45;7.28;;;24.80;60.10;;;;;;5117871;27;20043;-50
2021/06/09 09:20:43;;;;;;;9.68;7.10;;;24.60;60.50;;;;;;5115340;28;20069;-48
2021/06/09 09:23:29;;;;;;;10.00;6.93;;;24.40;61.00;;;;;;5115107;28;20092;-47
2021/06/09 09:25:56;;;;;;;;;;;24.20;61.30;;;;;;5115368;28;20051;-51
2021/06/09 09:28:42;;;;;;;8.40;7.05;;;24.00;61.60;;;;;;5113672;28;19923;-51
2021/06/09 09:31:17;;;;;;;7.70;6.75;;;23.90;62.10;;;;;;5094359;28;20044;-52
2021/06/09 09:33:43;;;;;;;8.65;6.68;;;23.80;62.50;;;;;;5094350;28;20122;-48
2021/06/09 09:36:29;;;;;;;7.25;6.38;;;23.60;62.80;;;;;;5094353;28;20165;-49
2021/06/09 09:38:57;;;;;;;8.00;6.15;;;23.60;63.20;;;;;;5106759;28;20052;-50
2021/06/09 09:41:32;;;;;;;9.40;6.05;;;23.40;63.40;;;;;;5113781;28;20044;-54
2021/06/09 09:44:03;;;;;;;7.80;6.43;;;23.40;63.70;;;;;;5114271;28;20454;-49
2021/06/09 09:46:53;;;;;;;6.90;5.97;;;23.30;63.80;;;;;;5114480;28;20415;-51
2021/06/09 09:49:23;;;;;;;6.95;6.03;;;23.20;64.00;;;;;;5113987;28;20453;-48
2021/06/09 09:51:53;;;;;;;7.43;6.22;;;23.20;64.40;;;;;;5114595;28;20047;-54
2021/06/09 09:54:24;;;;;;;6.57;5.82;;;23.10;64.40;;;;;;5114507;28;20043;-46
2021/06/09 09:56:50;;;;;;;8.57;5.60;;;23.20;64.60;;;;;;5114371;28;20483;-51
2021/06/09 09:59:15;;;;;;;7.35;5.65;;;23.10;64.80;;;;;;5113437;28;20036;-53
2021/06/09 10:01:50;;;;;;;7.68;5.53;;;23.10;64.90;;;;;;5113927;28;20039;-49
2021/06/09 10:04:28;;;;;;;6.70;5.03;;;23.00;65.00;;;;;;5093622;28;20477;-54
2021/06/09 10:06:56;;;;;;;6.50;5.10;;;23.00;65.10;;;;;;5093350;28;20058;-46
2021/06/09 10:09:24;;;;;;;6.38;5.10;;;23.00;65.20;;;;;;5093858;28;20048;-50
2021/06/09 10:11:58;;;;;;;5.85;5.25;;;22.90;65.30;;;;;;5112739;28;20050;-56
2021/06/09 10:14:25;;;;;;;7.43;4.88;;;23.00;65.40;;;;;;5113377;28;20055;-54
2021/06/09 10:16:57;;;;;;;5.78;4.97;;;22.90;65.50;;;;;;5113783;28;20043;-51
2021/06/09 10:19:23;;;;;;;4.47;4.07;;;22.90;65.60;;;;;;5114013;28;20057;-47
2021/06/09 10:21:56;;;;;;;5.72;4.75;;;22.90;65.70;;;;;;5113387;28;20048;-55
2021/06/09 10:24:24;;;;;;;4.85;4.45;;;22.90;65.70;;;;;;5113835;28;20233;-48
2021/06/09 10:27:02;;;;;;;5.57;5.00;;;22.90;65.80;;;;;;5113717;28;20105;-52
2021/06/09 10:29:31;;;;;;;7.20;5.05;;;22.90;65.90;;;;;;5113066;28;20040;-53
2021/06/09 10:32:00;;;;;;;5.32;4.30;;;22.90;65.90;;;;;;5113044;28;20047;-50
2021/06/09 10:34:31;;;;;;;6.22;4.80;;;22.90;66.00;;;;;;5113421;28;20151;-57
2021/06/09 10:36:59;;;;;;;5.40;4.50;;;22.90;66.10;;;;;;5113515;28;20093;-55
2021/06/09 10:39:27;;;;;;;6.07;4.57;;;22.90;66.10;;;;;;5113475;28;20039;-56
2021/06/09 10:42:02;;;;;;;4.85;4.35;;;22.80;66.10;;;;;;5112100;28;20122;-57
2021/06/09 10:44:34;;;;;;;5.28;4.47;;;22.90;66.20;;;;;;5113156;28;20048;-57
2021/06/09 10:47:01;;;;;;;4.70;4.20;;;22.90;66.20;;;;;;5113080;28;20138;-57
2021/06/09 10:49:32;;;;;;;4.90;4.45;;;22.90;66.20;;;;;;5113297;28;20043;-56
2021/06/09 10:52:00;;;;;;;4.95;4.30;;;22.90;66.30;;;;;;5112929;28;20052;-55
2021/06/09 10:54:27;;;;;;;5.82;4.70;;;22.90;66.30;;;;;;5112964;28;20044;-56
2021/06/09 10:56:55;;;;;;;5.03;4.53;;;22.90;66.30;;;;;;5113177;28;20142;-57
2021/06/09 10:59:26;;;;;;;5.38;4.47;;;22.90;66.30;;;;;;5113284;28;20043;-56
2021/06/09 11:02:09;;;;;;;5.18;4.68;;;22.90;66.40;;;;;;5112686;28;20537;-56
2021/06/09 11:04:49;;;;;;;4.72;4.30;;;22.90;66.40;;;;;;5112759;28;20043;-56
2021/06/09 11:07:32;;;;;;;4.95;4.03;;;22.90;66.40;;;;;;5112932;28;20047;-56
2021/06/09 11:10:10;;;;;;;5.15;4.18;;;22.90;66.40;;;;;;5092814;28;20109;-57
2021/06/09 11:12:44;;;;;;;4.65;4.25;;;22.90;66.50;;;;;;5092743;28;20127;-56
2021/06/09 11:15:22;;;;;;;4.53;3.97;;;22.90;66.50;;;;;;5092686;28;20463;-56
2021/06/09 11:17:56;;;;;;;5.53;4.22;;;22.90;67.10;;;;;;5092368;28;20290;-55
2021/06/09 11:20:37;;;;;;;5.13;4.50;;;22.90;66.50;;;;;;5112675;28;20040;-56
2021/06/09 11:23:05;;;;;;;4.88;4.32;;;22.90;66.50;;;;;;5126815;27;20058;-53
2021/06/09 11:25:42;;;;;;;4.90;4.40;;;22.90;66.50;;;;;;5133721;27;20058;-56
2021/06/09 11:28:16;;;;;;;5.07;4.00;;;22.90;67.30;;;;;;5133253;27;20054;-50
2021/06/09 11:30:48;;;;;;;5.00;4.47;;;22.90;66.60;;;;;;5131431;27;20047;-51
2021/06/09 11:33:37;;;;;;;6.35;4.00;;;22.90;66.60;;;;;;5132802;27;20153;-50
2021/06/09 11:36:23;;;;;;;6.65;4.70;;;23.00;66.60;;;;;;5133265;27;20051;-49
2021/06/09 11:38:50;;;;;;;7.45;5.25;;;22.90;66.60;;;;;;5118756;28;20055;-51
2021/06/09 11:41:26;;;;;;;6.05;5.45;;;22.90;66.60;;;;;;5129624;28;20051;-50
2021/06/09 11:43:55;;;;;;;6.20;5.28;;;22.90;66.60;;;;;;5112697;28;20047;-51
2021/06/09 11:46:51;;;;;;;5.45;4.95;;;23.00;66.70;;;;;;5112799;28;20039;-50
2021/06/09 11:49:23;;;;;;;6.07;5.35;;;23.00;66.70;;;;;;5069320;28;20078;-51
2021/06/09 11:52:00;;;;;;;6.03;5.43;;;23.00;66.70;;;;;;5071151;28;20048;-50
2021/06/09 11:54:31;;;;;;;5.57;5.07;;;23.00;66.70;;;;;;5073599;28;20098;-54
2021/06/09 11:56:59;;;;;;;6.45;5.82;;;23.00;66.70;;;;;;5073896;28;20052;-53
2021/06/09 11:59:33;;;;;;;7.53;5.72;;;23.00;66.70;;;;;;5073735;28;20531;-55
2021/06/09 12:02:03;;;;;;;6.90;5.70;;;23.00;66.70;;;;;;5074742;28;20500;-54
2021/06/09 12:04:30;;;;;;;6.28;5.55;;;23.00;66.60;;;;;;5073209;28;20130;-50
2021/06/09 12:07:01;;;;;;;8.57;6.53;;;23.10;66.70;;;;;;5073601;28;20147;-55
2021/06/09 12:09:36;;;;;;;6.72;6.03;;;23.10;66.70;;;;;;5073585;28;20044;-53
2021/06/09 12:12:04;;;;;;;;;;;23.10;66.70;;;;;;5074992;28;20530;-46
2021/06/09 12:14:33;;;;;;;6.85;6.18;;;23.10;66.60;;;;;;5072686;28;19920;-50
2021/06/09 12:17:10;;;;;;;6.20;5.40;;;23.10;66.70;;;;;;5072367;28;20127;-51
2021/06/09 12:19:39;;;;;;;6.20;5.60;;;23.10;66.70;;;;;;5072835;28;20044;-51
2021/06/09 12:22:08;;;;;;;7.07;6.38;;;23.10;66.70;;;;;;5077988;28;20078;-51
2021/06/09 12:24:35;;;;;;;6.43;5.82;;;23.10;66.70;;;;;;5094261;28;20101;-51
2021/06/09 12:27:07;;;;;;;6.25;5.65;;;23.10;66.60;;;;;;5115875;28;20056;-54
2021/06/09 12:29:35;;;;;;;6.93;6.22;;;23.10;66.60;;;;;;5116112;28;20047;-48
2021/06/09 12:32:19;;;;;;;6.82;6.13;;;23.10;66.60;;;;;;5116084;28;20381;-48
2021/06/09 12:34:56;;;;;;;6.28;5.68;;;23.10;66.60;;;;;;5115171;28;20044;-46
2021/06/09 12:37:23;;;;;;;6.53;5.45;;;23.20;66.70;;;;;;5115946;28;20043;-44
2021/06/09 12:39:59;;;;;;;6.47;5.88;;;23.10;66.60;;;;;;5115829;28;20039;-48
2021/06/09 12:42:26;;;;;;;6.70;6.10;;;23.20;66.70;;;;;;5115819;28;20043;-49
2021/06/09 12:44:52;;;;;;;5.75;5.25;;;23.20;66.70;;;;;;5115456;28;20039;-47
2021/06/09 12:47:33;;;;;;;6.85;6.15;;;23.20;66.60;;;;;;5115579;28;20112;-49
2021/06/09 12:50:16;;;;;;;6.65;5.95;;;23.20;67.30;;;;;;5115185;28;20124;-46
2021/06/09 12:52:57;;;;;;;7.35;6.13;;;23.20;66.60;;;;;;5115699;28;20051;-47
2021/06/09 12:55:29;;;;;;;6.47;5.72;;;23.20;66.60;;;;;;5114893;28;20464;-45
2021/06/09 12:58:00;;;;;;;6.40;5.80;;;23.20;66.60;;;;;;5115058;28;20048;-47
2021/06/09 13:00:43;;;;;;;7.53;6.72;;;23.20;66.60;;;;;;5115460;28;20066;-47
2021/06/09 13:03:34;;;;;;;6.63;6.03;;;23.20;66.60;;;;;;5115222;28;20499;-46
2021/06/09 13:06:09;;;;;;;6.00;5.45;;;23.20;66.60;;;;;;5114762;28;20058;-48
2021/06/09 13:08:57;;;;;;;6.88;5.97;;;23.20;66.60;;;;;;5115446;28;20040;-47